createdAt,value
2023-10-07T00:01:00.384Z,99335.13
2023-10-07T00:03:39.821Z,99327.48
2023-10-07T00:06:11.453Z,99326.45
2023-10-07T00:08:38.506Z,99326.20
2023-10-07T00:11:12.425Z,99327.89
2023-10-07T00:13:42.910Z,99328.21
2023-10-07T00:16:12.425Z,99323.52
2023-10-07T00:18:39.490Z,99325.55
2023-10-07T00:21:07.692Z,99322.98
2023-10-07T00:23:36.287Z,99321.29
2023-10-07T00:26:08.410Z,99313.81
2023-10-07T00:28:36.757Z,99311.85
2023-10-07T00:31:07.532Z,99310.74
2023-10-07T00:33:47.061Z,99310.30
2023-10-07T00:36:21.590Z,99309.93
2023-10-07T00:38:48.680Z,99306.94
2023-10-07T00:41:19.418Z,99304.58
2023-10-07T00:43:46.983Z,99303.38
2023-10-07T00:46:28.888Z,99302.75
2023-10-07T00:48:58.643Z,99300.31
2023-10-07T00:51:34.238Z,99297.48
2023-10-07T00:54:17.274Z,99292.20
2023-10-07T00:56:53.686Z,99285.88
2023-10-07T00:59:20.777Z,99282.63
2023-10-07T01:01:51.215Z,99278.59
2023-10-07T01:04:19.275Z,99276.66
2023-10-07T01:06:46.466Z,99265.83
2023-10-07T01:09:15.392Z,99263.61
2023-10-07T01:11:46.588Z,99257.00
2023-10-07T01:14:13.455Z,99262.83
2023-10-07T01:16:44.291Z,99267.30
2023-10-07T01:19:12.899Z,99270.27
2023-10-07T01:21:56.141Z,99276.01
2023-10-07T01:24:44.151Z,99275.65
2023-10-07T01:27:40.602Z,99273.56
2023-10-07T01:30:16.304Z,99276.29
2023-10-07T01:32:54.347Z,99275.55
2023-10-07T01:35:34.753Z,99280.95
2023-10-07T01:38:08.362Z,99281.52
2023-10-07T01:40:51.457Z,99287.59
2023-10-07T01:43:19.619Z,99280.64
2023-10-07T01:45:49.295Z,99277.65
2023-10-07T01:48:18.229Z,99273.91
2023-10-07T01:50:47.364Z,99276.05
2023-10-07T01:53:16.775Z,99272.98
2023-10-07T01:55:43.842Z,99273.23
2023-10-07T01:58:15.052Z,99274.63
2023-10-07T02:00:45.493Z,99275.95
2023-10-07T02:03:22.821Z,99283.97
2023-10-07T02:05:50.474Z,99285.47
2023-10-07T02:08:21.938Z,99284.98
2023-10-07T02:10:50.675Z,99278.91
2023-10-07T02:13:22.585Z,99270.45
2023-10-07T02:15:50.511Z,99266.24
2023-10-07T02:18:17.884Z,99255.82
2023-10-07T02:20:44.935Z,99252.42
2023-10-07T02:23:16.454Z,99240.37
2023-10-07T02:25:43.481Z,99239.42
2023-10-07T02:28:10.761Z,99243.63
2023-10-07T02:30:39.995Z,99243.13
2023-10-07T02:33:14.463Z,99251.83
2023-10-07T02:35:47.030Z,99250.66
2023-10-07T02:38:14.031Z,99251.52
2023-10-07T02:40:50.701Z,99247.05
2023-10-07T02:43:17.829Z,99244.17
2023-10-07T02:45:44.950Z,99240.91
2023-10-07T02:48:12.086Z,99240.88
2023-10-07T02:50:52.673Z,99238.02
2023-10-07T02:53:19.824Z,99241.49
2023-10-07T02:56:09.586Z,99243.92
2023-10-07T02:58:41.985Z,99243.19
2023-10-07T03:01:13.075Z,99233.61
2023-10-07T03:03:41.781Z,99230.78
2023-10-07T03:06:09.173Z,99232.83
2023-10-07T03:09:02.856Z,99232.05
2023-10-07T03:11:49.825Z,99226.68
2023-10-07T03:14:25.953Z,99220.20
2023-10-07T03:17:00.571Z,99214.95
2023-10-07T03:19:34.223Z,99216.91
2023-10-07T03:22:10.440Z,99215.14
2023-10-07T03:24:55.554Z,99216.02
2023-10-07T03:27:26.086Z,99218.24
2023-10-07T03:30:01.339Z,99222.73
2023-10-07T03:32:34.517Z,99214.91
2023-10-07T03:35:02.034Z,99213.63
2023-10-07T03:37:29.357Z,99210.22
2023-10-07T03:40:05.061Z,99213.84
2023-10-07T03:42:33.734Z,99212.64
2023-10-07T03:45:01.461Z,99218.24
2023-10-07T03:47:33.155Z,99219.28
2023-10-07T03:50:00.267Z,99213.86
2023-10-07T03:52:28.735Z,99216.70
2023-10-07T03:54:57.863Z,99213.39
2023-10-07T03:57:25.621Z,99212.98
2023-10-07T03:59:54.107Z,99212.38
2023-10-07T04:02:35.707Z,99212.66
2023-10-07T04:05:13.576Z,99212.92
2023-10-07T04:07:43.805Z,99215.45
2023-10-07T04:10:21.481Z,99218.23
2023-10-07T04:12:50.108Z,99214.59
2023-10-07T04:15:28.719Z,99211.72
2023-10-07T04:17:55.695Z,99216.05
2023-10-07T04:20:42.680Z,99216.33
2023-10-07T04:23:10.171Z,99216.10
2023-10-07T04:25:43.863Z,99217.37
2023-10-07T04:28:14.301Z,99212.27
2023-10-07T04:30:41.508Z,99217.20
2023-10-07T04:33:10.966Z,99217.77
2023-10-07T04:35:39.636Z,99216.74
2023-10-07T04:38:24.617Z,99216.60
2023-10-07T04:41:09.885Z,99216.39
2023-10-07T04:43:37.195Z,99217.67
2023-10-07T04:46:29.618Z,99211.16
2023-10-07T04:48:58.759Z,99207.78
2023-10-07T04:51:32.212Z,99204.98
2023-10-07T04:53:59.793Z,99200.79
2023-10-07T04:56:27.795Z,99200.27
2023-10-07T04:58:55.327Z,99199.61
2023-10-07T05:01:34.993Z,99206.09
2023-10-07T05:04:09.407Z,99203.79
2023-10-07T05:06:38.060Z,99202.53
2023-10-07T05:09:10.190Z,99203.05
2023-10-07T05:11:38.804Z,99202.10
2023-10-07T05:14:08.630Z,99200.88
2023-10-07T05:16:36.022Z,99200.88
2023-10-07T05:19:04.120Z,99202.98
2023-10-07T05:21:32.576Z,99201.41
2023-10-07T05:24:03.497Z,99208.29
2023-10-07T05:26:31.958Z,99205.67
2023-10-07T05:29:02.454Z,99205.33
2023-10-07T05:31:33.989Z,99213.98
2023-10-07T05:34:01.124Z,99219.30
2023-10-07T05:36:31.511Z,99219.42
2023-10-07T05:39:01.177Z,99219.37
2023-10-07T05:41:29.403Z,99214.80
2023-10-07T05:43:56.382Z,99213.67
2023-10-07T05:46:23.664Z,99217.80
2023-10-07T05:48:51.997Z,99217.77
2023-10-07T05:51:18.879Z,99218.30
2023-10-07T05:53:49.426Z,99223.65
2023-10-07T05:56:16.444Z,99216.88
2023-10-07T05:58:47.505Z,99217.89
2023-10-07T06:01:15.295Z,99215.98
2023-10-07T06:03:44.007Z,99214.27
2023-10-07T06:06:11.557Z,99218.03
2023-10-07T06:08:38.762Z,99217.98
2023-10-07T06:11:06.100Z,99220.17
2023-10-07T06:13:34.103Z,99221.83
2023-10-07T06:16:05.122Z,99224.70
2023-10-07T06:18:34.647Z,99227.58
2023-10-07T06:21:26.665Z,99224.31
2023-10-07T06:23:54.317Z,99219.77
2023-10-07T06:26:21.628Z,99223.15
2023-10-07T06:28:51.903Z,99218.07
2023-10-07T06:31:23.738Z,99212.44
2023-10-07T06:34:09.806Z,99213.11
2023-10-07T06:36:38.771Z,99217.13
2023-10-07T06:39:08.483Z,99206.87
2023-10-07T06:41:37.383Z,99204.34
2023-10-07T06:44:05.028Z,99210.99
2023-10-07T06:46:45.622Z,99211.79
2023-10-07T06:49:16.921Z,99207.21
2023-10-07T06:51:44.571Z,99203.08
2023-10-07T06:54:11.913Z,99195.21
2023-10-07T06:56:40.269Z,99193.24
2023-10-07T06:59:07.677Z,99188.42
2023-10-07T07:01:40.940Z,99186.35
2023-10-07T07:04:19.808Z,99184.70
2023-10-07T07:06:58.204Z,99187.73
2023-10-07T07:09:45.016Z,99183.55
2023-10-07T07:12:17.021Z,99184.55
2023-10-07T07:14:51.545Z,99182.34
2023-10-07T07:17:51.870Z,99183.94
2023-10-07T07:20:32.979Z,99182.43
2023-10-07T07:23:04.716Z,99182.60
2023-10-07T07:25:37.040Z,99185.20
2023-10-07T07:28:05.086Z,99187.69
2023-10-07T07:30:32.906Z,99190.66
2023-10-07T07:33:06.947Z,99191.20
2023-10-07T07:35:44.106Z,99189.79
2023-10-07T07:38:41.138Z,99191.88
2023-10-07T07:41:12.515Z,99190.49
2023-10-07T07:43:40.836Z,99190.91
2023-10-07T07:46:17.892Z,99189.50
2023-10-07T07:48:45.477Z,99195.36
2023-10-07T07:51:17.111Z,99194.99
2023-10-07T07:53:44.445Z,99192.92
2023-10-07T07:56:13.737Z,99187.73
2023-10-07T07:58:50.242Z,99189.37
2023-10-07T08:01:29.208Z,99184.98
2023-10-07T08:04:10.726Z,99184.23
2023-10-07T08:06:38.392Z,99180.81
2023-10-07T08:09:06.041Z,99177.77
2023-10-07T08:11:35.765Z,99174.56
2023-10-07T08:14:12.051Z,99172.16
2023-10-07T08:16:51.146Z,99165.80
2023-10-07T08:19:21.394Z,99168.02
2023-10-07T08:21:52.277Z,99167.30
2023-10-07T08:24:20.608Z,99163.14
2023-10-07T08:26:59.799Z,99161.08
2023-10-07T08:29:33.044Z,99158.27
2023-10-07T08:32:00.958Z,99157.75
2023-10-07T08:34:36.042Z,99150.14
2023-10-07T08:37:08.774Z,99145.08
2023-10-07T08:39:45.362Z,99141.81
2023-10-07T08:42:18.189Z,99143.48
2023-10-07T08:44:51.945Z,99136.67
2023-10-07T08:47:23.264Z,99127.21
2023-10-07T08:49:53.081Z,99126.54
2023-10-07T08:52:20.822Z,99130.92
2023-10-07T08:54:48.495Z,99128.67
2023-10-07T08:57:17.046Z,99127.23
2023-10-07T08:59:50.382Z,99125.16
2023-10-07T09:02:27.601Z,99123.56
2023-10-07T09:04:56.016Z,99127.27
2023-10-07T09:07:23.555Z,99122.50
2023-10-07T09:09:50.745Z,99124.66
2023-10-07T09:12:31.662Z,99118.23
2023-10-07T09:15:00.987Z,99117.56
2023-10-07T09:17:28.178Z,99113.92
2023-10-07T09:19:59.477Z,99104.29
2023-10-07T09:22:36.087Z,99104.17
2023-10-07T09:25:18.798Z,99098.48
2023-10-07T09:27:55.412Z,99098.02
2023-10-07T09:30:41.086Z,99094.61
2023-10-07T09:33:16.012Z,99093.89
2023-10-07T09:35:44.375Z,99089.48
2023-10-07T09:38:33.656Z,99088.52
2023-10-07T09:41:20.722Z,99088.98
2023-10-07T09:43:48.326Z,99083.03
2023-10-07T09:46:31.226Z,99081.00
2023-10-07T09:49:04.236Z,99080.88
2023-10-07T09:51:38.030Z,99075.77
2023-10-07T09:54:08.269Z,99075.94
2023-10-07T09:56:45.557Z,99068.88
2023-10-07T09:59:51.659Z,99062.80
2023-10-07T10:02:33.776Z,99059.05
2023-10-07T10:05:06.014Z,99053.06
2023-10-07T10:07:40.177Z,99052.57
2023-10-07T10:10:16.089Z,99049.27
2023-10-07T10:12:52.279Z,99038.90
2023-10-07T10:15:21.942Z,99027.73
2023-10-07T10:17:49.762Z,99020.98
2023-10-07T10:20:19.374Z,99011.17
2023-10-07T10:22:50.162Z,99002.35
2023-10-07T10:25:37.003Z,98996.69
2023-10-07T10:28:04.326Z,98989.46
2023-10-07T10:30:31.307Z,98984.89
2023-10-07T10:33:01.684Z,98979.73
2023-10-07T10:35:33.866Z,98972.26
2023-10-07T10:38:01.165Z,98964.58
2023-10-07T10:40:32.388Z,98953.30
2023-10-07T10:43:00.634Z,98947.88
2023-10-07T10:45:30.519Z,98940.28
2023-10-07T10:48:01.727Z,98933.80
2023-10-07T10:50:33.056Z,98930.33
2023-10-07T10:53:01.007Z,98926.42
2023-10-07T10:55:34.773Z,98929.95
2023-10-07T10:58:01.625Z,98933.04
2023-10-07T11:00:29.295Z,98935.21
2023-10-07T11:02:56.712Z,98935.58
2023-10-07T11:05:26.681Z,98933.79
2023-10-07T11:07:54.986Z,98935.04
2023-10-07T11:10:23.760Z,98934.63
2023-10-07T11:12:53.757Z,98936.02
2023-10-07T11:15:27.687Z,98927.77
2023-10-07T11:17:54.753Z,98926.52
2023-10-07T11:20:24.849Z,98927.86
2023-10-07T11:22:53.749Z,98922.65
2023-10-07T11:25:23.635Z,98916.54
2023-10-07T11:27:50.688Z,98913.48
2023-10-07T11:30:17.608Z,98911.81
2023-10-07T11:32:44.992Z,98906.66
2023-10-07T11:35:26.000Z,98906.85
2023-10-07T11:37:59.955Z,98907.28
2023-10-07T11:40:28.257Z,98890.48
2023-10-07T11:42:55.645Z,98890.30
2023-10-07T11:45:23.666Z,98882.55
2023-10-07T11:47:51.046Z,98878.47
2023-10-07T11:50:18.472Z,98880.42
2023-10-07T11:52:46.943Z,98880.57
2023-10-07T11:55:17.738Z,98878.08
2023-10-07T11:57:44.994Z,98877.60
2023-10-07T12:00:23.642Z,98874.04
2023-10-07T12:02:51.299Z,98872.83
2023-10-07T12:05:19.316Z,98864.83
2023-10-07T12:07:48.494Z,98861.38
2023-10-07T12:10:18.369Z,98855.16
2023-10-07T12:12:45.686Z,98856.41
2023-10-07T12:15:16.589Z,98852.45
2023-10-07T12:17:44.825Z,98850.52
2023-10-07T12:20:15.880Z,98848.16
2023-10-07T12:22:43.767Z,98844.89
2023-10-07T12:25:16.713Z,98844.91
2023-10-07T12:27:44.480Z,98843.43
2023-10-07T12:30:12.318Z,98842.38
2023-10-07T12:32:42.459Z,98837.48
2023-10-07T12:35:14.231Z,98837.99
2023-10-07T12:37:42.370Z,98840.17
2023-10-07T12:40:11.771Z,98839.25
2023-10-07T12:42:40.361Z,98835.18
2023-10-07T12:45:08.813Z,98844.65
2023-10-07T12:47:37.765Z,98847.48
2023-10-07T12:50:23.187Z,98844.26
2023-10-07T12:53:11.382Z,98844.55
2023-10-07T12:55:39.824Z,98841.90
2023-10-07T12:58:09.544Z,98841.48
2023-10-07T13:00:36.964Z,98845.13
2023-10-07T13:03:07.891Z,98838.20
2023-10-07T13:05:42.844Z,98834.91
2023-10-07T13:08:13.625Z,98832.05
2023-10-07T13:10:41.191Z,98824.77
2023-10-07T13:13:08.645Z,98816.75
2023-10-07T13:15:36.017Z,98812.44
2023-10-07T13:18:03.677Z,98808.69
2023-10-07T13:20:31.113Z,98805.08
2023-10-07T13:22:58.949Z,98802.48
2023-10-07T13:25:26.980Z,98798.76
2023-10-07T13:27:58.637Z,98796.18
2023-10-07T13:30:25.759Z,98779.33
2023-10-07T13:32:54.951Z,98776.34
2023-10-07T13:35:22.721Z,98773.93
2023-10-07T13:37:50.788Z,98770.77
2023-10-07T13:40:18.635Z,98772.52
2023-10-07T13:42:47.865Z,98776.23
2023-10-07T13:45:15.313Z,98779.44
2023-10-07T13:47:45.561Z,98781.25
2023-10-07T13:50:16.241Z,98785.83
2023-10-07T13:53:06.719Z,98780.79
2023-10-07T13:55:39.517Z,98783.31
2023-10-07T13:58:06.477Z,98781.45
2023-10-07T14:00:37.654Z,98782.03
2023-10-07T14:03:20.202Z,98779.48
2023-10-07T14:06:11.449Z,98779.98
2023-10-07T14:08:43.916Z,98781.25
2023-10-07T14:11:10.874Z,98780.77
2023-10-07T14:13:40.695Z,98781.35
2023-10-07T14:16:19.340Z,98778.80
2023-10-07T14:18:47.184Z,98777.05
2023-10-07T14:21:14.517Z,98774.28
2023-10-07T14:23:41.776Z,98769.24
2023-10-07T14:26:16.729Z,98767.38
2023-10-07T14:28:47.177Z,98764.31
2023-10-07T14:31:16.935Z,98766.44
2023-10-07T14:33:46.063Z,98761.92
2023-10-07T14:36:13.056Z,98763.42
2023-10-07T14:38:41.807Z,98757.36
2023-10-07T14:41:09.060Z,98754.27
2023-10-07T14:43:36.532Z,98751.13
2023-10-07T14:46:11.833Z,98748.59
2023-10-07T14:48:40.358Z,98751.41
2023-10-07T14:51:08.605Z,98749.85
2023-10-07T14:53:36.330Z,98745.02
2023-10-07T14:56:17.803Z,98749.91
2023-10-07T14:58:48.185Z,98748.02
2023-10-07T15:01:15.476Z,98746.23
2023-10-07T15:03:43.401Z,98745.63
2023-10-07T15:06:11.539Z,98741.90
2023-10-07T15:08:39.844Z,98745.04
2023-10-07T15:11:08.509Z,98751.41
2023-10-07T15:13:39.298Z,98750.98
2023-10-07T15:16:14.223Z,98748.80
2023-10-07T15:18:45.126Z,98746.63
2023-10-07T15:21:12.502Z,98743.19
2023-10-07T15:23:40.442Z,98743.40
2023-10-07T15:26:11.913Z,98743.91
2023-10-07T15:28:39.506Z,98746.42
2023-10-07T15:31:07.288Z,98741.59
2023-10-07T15:33:34.667Z,98748.05
2023-10-07T15:36:01.851Z,98749.05
2023-10-07T15:38:29.253Z,98746.34
2023-10-07T15:40:57.575Z,98746.65
2023-10-07T15:43:24.742Z,98740.67
2023-10-07T15:45:51.930Z,98735.42
2023-10-07T15:48:21.065Z,98737.28
2023-10-07T15:50:49.072Z,98733.46
2023-10-07T15:53:16.288Z,98730.63
2023-10-07T15:55:43.716Z,98730.09
2023-10-07T15:58:11.625Z,98730.65
2023-10-07T16:00:39.125Z,98727.91
2023-10-07T16:03:12.031Z,98727.89
2023-10-07T16:05:39.560Z,98730.87
2023-10-07T16:08:06.736Z,98731.80
2023-10-07T16:10:40.103Z,98727.72
2023-10-07T16:13:07.091Z,98726.15
2023-10-07T16:15:34.554Z,98723.84
2023-10-07T16:18:02.035Z,98724.77
2023-10-07T16:20:29.262Z,98719.55
2023-10-07T16:22:59.996Z,98720.45
2023-10-07T16:25:27.284Z,98719.84
2023-10-07T16:27:55.042Z,98715.22
2023-10-07T16:30:22.089Z,98719.35
2023-10-07T16:32:49.205Z,98715.33
2023-10-07T16:35:16.613Z,98720.59
2023-10-07T16:37:43.607Z,98716.67
2023-10-07T16:40:16.689Z,98714.02
2023-10-07T16:42:44.436Z,98706.17
2023-10-07T16:45:13.042Z,98703.16
2023-10-07T16:47:40.229Z,98708.79
2023-10-07T16:50:15.356Z,98707.67
2023-10-07T16:52:43.472Z,98706.45
2023-10-07T16:55:10.535Z,98706.71
2023-10-07T16:57:38.467Z,98706.25
2023-10-07T17:00:06.142Z,98702.34
2023-10-07T17:02:33.648Z,98709.13
2023-10-07T17:05:00.931Z,98707.52
2023-10-07T17:07:28.120Z,98704.89
2023-10-07T17:09:56.335Z,98702.04
2023-10-07T17:12:24.631Z,98705.94
2023-10-07T17:14:51.927Z,98705.58
2023-10-07T17:17:20.192Z,98703.42
2023-10-07T17:19:48.027Z,98702.30
2023-10-07T17:22:15.309Z,98703.10
2023-10-07T17:24:42.850Z,98699.02
2023-10-07T17:27:09.918Z,98699.46
2023-10-07T17:29:36.958Z,98700.03
2023-10-07T17:32:07.403Z,98700.95
2023-10-07T17:34:34.674Z,98698.91
2023-10-07T17:37:01.799Z,98696.61
2023-10-07T17:39:29.775Z,98696.23
2023-10-07T17:41:57.411Z,98689.54
2023-10-07T17:44:24.557Z,98690.92
2023-10-07T17:46:51.797Z,98689.88
2023-10-07T17:49:19.527Z,98698.82
2023-10-07T17:51:46.791Z,98695.09
2023-10-07T17:54:19.081Z,98696.48
2023-10-07T17:56:46.065Z,98699.20
2023-10-07T17:59:13.397Z,98701.62
2023-10-07T18:01:40.878Z,98696.18
2023-10-07T18:04:07.933Z,98692.63
2023-10-07T18:06:35.243Z,98697.05
2023-10-07T18:09:02.301Z,98694.42
2023-10-07T18:11:29.468Z,98696.36
2023-10-07T18:13:56.741Z,98696.14
2023-10-07T18:16:23.869Z,98692.21
2023-10-07T18:18:52.889Z,98691.28
2023-10-07T18:21:20.432Z,98693.67
2023-10-07T18:23:50.249Z,98698.61
2023-10-07T18:26:17.475Z,98694.77
2023-10-07T18:28:45.066Z,98694.84
2023-10-07T18:31:14.514Z,98689.92
2023-10-07T18:33:50.061Z,98694.30
2023-10-07T18:36:16.955Z,98693.84
2023-10-07T18:38:43.982Z,98695.09
2023-10-07T18:41:11.133Z,98693.38
2023-10-07T18:43:38.218Z,98692.04
2023-10-07T18:46:06.371Z,98695.84
2023-10-07T18:48:33.563Z,98691.05
2023-10-07T18:51:07.471Z,98687.14
2023-10-07T18:53:34.722Z,98683.33
2023-10-07T18:56:02.814Z,98688.86
2023-10-07T18:58:30.078Z,98684.57
2023-10-07T19:01:00.234Z,98688.11
2023-10-07T19:03:27.741Z,98684.07
2023-10-07T19:05:55.838Z,98678.56
2023-10-07T19:08:23.144Z,98680.20
2023-10-07T19:10:50.402Z,98675.91
2023-10-07T19:13:17.942Z,98674.79
2023-10-07T19:15:45.803Z,98671.15
2023-10-07T19:18:14.762Z,98670.46
2023-10-07T19:20:52.862Z,98665.06
2023-10-07T19:23:22.146Z,98657.59
2023-10-07T19:26:02.876Z,98660.84
2023-10-07T19:28:32.048Z,98662.48
2023-10-07T19:30:59.191Z,98661.16
2023-10-07T19:33:26.400Z,98662.03
2023-10-07T19:35:58.104Z,98655.38
2023-10-07T19:38:25.691Z,98652.50
2023-10-07T19:40:53.260Z,98651.34
2023-10-07T19:43:20.517Z,98648.90
2023-10-07T19:45:47.895Z,98648.65
2023-10-07T19:48:15.798Z,98644.23
2023-10-07T19:50:44.258Z,98641.24
2023-10-07T19:53:11.402Z,98633.85
2023-10-07T19:55:41.631Z,98636.55
2023-10-07T19:58:08.532Z,98631.02
2023-10-07T20:00:38.577Z,98633.27
2023-10-07T20:03:05.836Z,98635.69
2023-10-07T20:05:35.826Z,98630.13
2023-10-07T20:08:03.520Z,98628.40
2023-10-07T20:10:32.328Z,98631.73
2023-10-07T20:13:02.062Z,98629.68
2023-10-07T20:15:29.251Z,98627.99
2023-10-07T20:17:56.536Z,98629.50
2023-10-07T20:20:24.240Z,98622.41
2023-10-07T20:22:52.624Z,98615.08
2023-10-07T20:25:21.829Z,98615.02
2023-10-07T20:27:50.450Z,98609.31
2023-10-07T20:30:20.123Z,98607.19
2023-10-07T20:32:48.074Z,98596.70
2023-10-07T20:35:19.757Z,98591.34
2023-10-07T20:37:46.809Z,98578.95
2023-10-07T20:40:15.191Z,98579.11
2023-10-07T20:42:42.263Z,98576.48
2023-10-07T20:45:09.811Z,98572.87
2023-10-07T20:47:36.709Z,98568.66
2023-10-07T20:50:07.139Z,98580.66
2023-10-07T20:52:34.248Z,98578.61
2023-10-07T20:55:01.815Z,98578.24
2023-10-07T20:57:28.905Z,98574.71
2023-10-07T20:59:56.234Z,98568.95
2023-10-07T21:02:23.161Z,98562.56
2023-10-07T21:04:50.428Z,98560.73
2023-10-07T21:07:17.382Z,98567.65
2023-10-07T21:09:44.438Z,98564.69
2023-10-07T21:12:11.384Z,98560.98
2023-10-07T21:14:38.604Z,98557.96
2023-10-07T21:17:05.523Z,98551.59
2023-10-07T21:19:32.653Z,98548.70
2023-10-07T21:22:00.208Z,98549.67
2023-10-07T21:24:27.364Z,98554.77
2023-10-07T21:26:56.674Z,98556.35
2023-10-07T21:29:23.801Z,98556.74
2023-10-07T21:31:50.838Z,98557.33
2023-10-07T21:34:17.756Z,98560.55
2023-10-07T21:36:44.729Z,98554.48
2023-10-07T21:39:12.555Z,98553.64
2023-10-07T21:41:39.762Z,98548.95
2023-10-07T21:44:06.841Z,98546.64
2023-10-07T21:46:36.020Z,98541.48
2023-10-07T21:49:03.122Z,98537.96
2023-10-07T21:51:30.168Z,98535.70
2023-10-07T21:53:57.635Z,98532.96
2023-10-07T21:56:24.590Z,98525.92
2023-10-07T21:58:52.717Z,98518.92
2023-10-07T22:01:19.922Z,98513.87
2023-10-07T22:03:48.480Z,98504.70
2023-10-07T22:06:15.533Z,98506.85
2023-10-07T22:08:42.808Z,98499.27
2023-10-07T22:11:10.749Z,98498.77
2023-10-07T22:13:38.192Z,98503.15
2023-10-07T22:16:08.145Z,98504.02
2023-10-07T22:18:35.432Z,98499.11
2023-10-07T22:21:03.970Z,98496.81
2023-10-07T22:23:31.050Z,98492.30
2023-10-07T22:25:58.465Z,98489.02
2023-10-07T22:28:27.184Z,98483.95
2023-10-07T22:30:54.214Z,98481.09
2023-10-07T22:33:21.460Z,98470.11
2023-10-07T22:35:49.239Z,98463.30
2023-10-07T22:38:20.383Z,98464.25
2023-10-07T22:40:48.351Z,98463.17
2023-10-07T22:43:18.718Z,98461.48
2023-10-07T22:45:49.278Z,98464.47
2023-10-07T22:48:20.493Z,98455.16
2023-10-07T22:51:01.416Z,98456.48
2023-10-07T22:53:30.093Z,98459.90
2023-10-07T22:56:00.353Z,98468.71
2023-10-07T22:58:28.452Z,98469.77
2023-10-07T23:00:56.313Z,98472.51
2023-10-07T23:03:35.226Z,98467.23
2023-10-07T23:06:18.486Z,98458.94
2023-10-07T23:08:58.439Z,98465.37
2023-10-07T23:11:25.437Z,98463.40
2023-10-07T23:13:56.789Z,98455.36
2023-10-07T23:16:28.073Z,98451.36
2023-10-07T23:18:59.277Z,98446.96
2023-10-07T23:21:45.532Z,98444.86
2023-10-07T23:24:32.675Z,98452.67
2023-10-07T23:27:04.611Z,98448.59
2023-10-07T23:29:34.623Z,98449.08
2023-10-07T23:32:14.033Z,98443.81
2023-10-07T23:34:43.830Z,98439.98
2023-10-07T23:37:17.122Z,98443.27
2023-10-07T23:39:59.617Z,98448.94
2023-10-07T23:42:27.787Z,98445.25
2023-10-07T23:44:55.461Z,98436.36
2023-10-07T23:47:25.847Z,98432.38
2023-10-07T23:49:58.098Z,98427.13
2023-10-07T23:52:25.649Z,98434.59
2023-10-07T23:55:08.655Z,98428.52
2023-10-07T23:57:39.152Z,98418.73
